Airfield :
LOGIN :

Register | Disclaimer

   EN    FR    IT 

 










Legend :    VFR   Marginal VFR   IFR   Intensive IFR   Very Intensive IFR
Visi :
Ceiling :
>= 8 km
>= 3000ft
5 to 8 km
1000 to 3000 ft
1500m to 5 km
500 to 1000 ft
800 to 1500m
200 to 500 ft
< 800m
< 200 ft
Symbols :   Thunderstorms  Fog  Heavy snow  Heavy precipitations  Wind > 20 kt
SIGMETs :     Misc.  Thunderstorms  Icing  Turbulence  Mountain Waves  Volcanic Ashes






- Airport Elevation : 7 ft
- IATA code : VCE


LIPZ - Marco Polo Int. Venezia

CURRENT METAR :
  • 081350Z 09008KT CAVOK 33/16 Q1017 NOSIG

EXPIRED METARs :
  • 081320Z 09008KT CAVOK 33/15 Q1017 NOSIG
  • 081250Z 09008KT CAVOK 33/16 Q1017 NOSIG
  • 081220Z 08009KT CAVOK 33/15 Q1017 NOSIG
  • 081150Z 07008KT 030V100 CAVOK 33/15 Q1017 NOSIG
  • 081120Z 07008KT CAVOK 33/14 Q1017 NOSIG

TAF TAF LIPZ
Valid from the 08 at 12:00 until the 09 at 18:00 UTC


081100Z 0812/0918 15010KT CAVOK
BECMG 0818/0820 03008KT
BECMG 0910/0912 15010KT



MET'MAP, your aeronautical weather chart ! - Copyright ORBIFLY December 2007 - Disclaimer

ORBIFLY MET'MAP TEAM :

Programming & Development : Alexandra Zaïnal
Concept & original design : Baudouin d'Aumeries
Assistance for programming : Marc-Olivier Méhu
Technical & hardware support : Manuel Goepfert

Contact : metmap@orbifly.com




SOURCES & CREDITS :

   NOAA